Lillian, AL

10:20 PM CDT on October 21, 2014 (GMT -0500)
Pensacola Regional | Change Station
CLOSE
Current Station
Airport
Location: Pensacola,
Elevation: 118 ft
Nearby Weather Stations

Elev 118 ft 30.48 °N, 87.19 °W | Updated 27 minutes ago

Clear
Clear
66 °F
Feels Like 66 °F
N
5
Wind Variable Wind from North

Today
High -- | Low -- °F
--% Chance of Precip.
Yesterday
High -- | Low -- °F
Precip. -- in
6:56 AM 6:12 PM
Waning Crescent, 3% visible
Pressure 30.02 in
Visibility 10.0 miles
Clouds Clear
Dew Point 54 °F
Humidity 65%
Rainfall 0.00 in
Snow Depth Not available.
UV 0 out of 12
Pollen 4.00 out of 12
Air Quality Not available.
Flu Activity Sporadic
METAR KPNS 220253Z 01004KT 10SM CLR 19/12 A3001 RMK AO2 SLP165 T01890122 51018

More Conditions Fewer Conditions

Pressure 30.02 in
Visibility 10.0 miles
Clouds Clear
Dew Point 54 °F
Humidity 65%
Rainfall 0.00 in
Snow Depth Not available.
UV 0 out of 12
Pollen 4.00 out of 12
Air Quality Not available.
Flu Activity Sporadic
METAR KPNS 220253Z 01004KT 10SM CLR 19/12 A3001 RMK AO2 SLP165 T01890122 51018

More Conditions Fewer Conditions

10-Day Weather Forecast

Almanac

Astronomy

Oct. 21, 2014 Rise Set
Actual Time 6:56 AM CDT 6:12 PM CDT
Civil Twilight 6:31 AM CDT 6:36 PM CDT
Nautical Twilight 6:03 AM CDT 7:04 PM CDT
Astronomical Twilight 5:35 AM CDT 7:32 PM CDT
Moon 4:49 AM CDT (10/21) 4:58 PM CDT (10/21)
Length of Visible Light 12h 04m
Length of Day
11h 16m
Tomorrow will be 1m 44s shorter.
Waning Crescent, 3% of the Moon is Illuminated
Today
Waning Crescent
Oct 23
New
Oct 30
First Quarter
Nov 6
Full
Nov 14
Last Quarter

Today's Extremes

State Highs State Lows

Community

WunderPhotos

Upload Photos

1,763,874 photos uploaded!

Nearby

Snow Depth

Station Depth Elevation
No new snow has been reported.

Earthquake Activity

City Distance Mag. Time & Date
No recent earthquake activity has been reported nearby.
Minimum magnitude displayed is 2.5.

Coastal Water Temperatures

Place Temperature
No Stations Reporting

Nearby Weather Stations